sensor_id;sensor_type;location;lat;lon;timestamp;P1;durP1;ratioP1;P2;durP2;ratioP2
65535;SDS011;52145;49.342;9.116;2023-05-01T00:01:23;5.28;;;1.92;;
65535;SDS011;52145;49.342;9.116;2023-05-01T00:03:49;4.57;;;2.05;;
65535;SDS011;52145;49.342;9.116;2023-05-01T00:06:15;4.20;;;1.67;;
65535;SDS011;52145;49.342;9.116;2023-05-01T00:08:41;4.53;;;2.38;;
65535;SDS011;52145;49.342;9.116;2023-05-01T00:11:07;2.78;;;1.77;;
65535;SDS011;52145;49.342;9.116;2023-05-01T00:13:36;3.45;;;1.60;;
65535;SDS011;52145;49.342;9.116;2023-05-01T00:16:09;5.38;;;2.20;;
65535;SDS011;52145;49.342;9.116;2023-05-01T00:18:35;3.78;;;1.80;;
65535;SDS011;52145;49.342;9.116;2023-05-01T00:21:01;4.65;;;2.50;;
65535;SDS011;52145;49.342;9.116;2023-05-01T00:23:27;4.45;;;1.67;;
65535;SDS011;52145;49.342;9.116;2023-05-01T00:25:53;3.88;;;2.25;;
65535;SDS011;52145;49.342;9.116;2023-05-01T00:28:19;2.15;;;1.70;;
65535;SDS011;52145;49.342;9.116;2023-05-01T00:30:45;4.38;;;1.70;;
65535;SDS011;52145;49.342;9.116;2023-05-01T00:33:11;4.85;;;2.10;;
65535;SDS011;52145;49.342;9.116;2023-05-01T00:35:37;3.45;;;1.83;;
65535;SDS011;52145;49.342;9.116;2023-05-01T00:38:03;3.30;;;2.00;;
65535;SDS011;52145;49.342;9.116;2023-05-01T00:40:29;3.05;;;1.77;;
65535;SDS011;52145;49.342;9.116;2023-05-01T00:42:55;3.60;;;2.00;;
65535;SDS011;52145;49.342;9.116;2023-05-01T00:45:21;2.67;;;1.80;;
65535;SDS011;52145;49.342;9.116;2023-05-01T00:47:47;2.97;;;1.90;;
65535;SDS011;52145;49.342;9.116;2023-05-01T00:50:13;3.22;;;1.95;;
65535;SDS011;52145;49.342;9.116;2023-05-01T00:52:39;5.95;;;2.08;;
65535;SDS011;52145;49.342;9.116;2023-05-01T00:55:05;3.35;;;2.15;;
65535;SDS011;52145;49.342;9.116;2023-05-01T00:57:32;3.38;;;1.92;;
65535;SDS011;52145;49.342;9.116;2023-05-01T00:59:58;5.80;;;2.03;;
65535;SDS011;52145;49.342;9.116;2023-05-01T01:02:24;4.07;;;2.13;;
65535;SDS011;52145;49.342;9.116;2023-05-01T01:04:51;3.92;;;1.88;;
65535;SDS011;52145;49.342;9.116;2023-05-01T01:07:18;3.25;;;1.83;;
65535;SDS011;52145;49.342;9.116;2023-05-01T01:20:18;5.78;;;2.20;;
65535;SDS011;52145;49.342;9.116;2023-05-01T01:22:50;3.03;;;1.88;;
65535;SDS011;52145;49.342;9.116;2023-05-01T01:28:05;3.72;;;2.30;;
65535;SDS011;52145;49.342;9.116;2023-05-01T01:36:05;3.85;;;1.88;;
65535;SDS011;52145;49.342;9.116;2023-05-01T01:38:36;2.30;;;1.73;;
65535;SDS011;52145;49.342;9.116;2023-05-01T01:41:09;2.88;;;1.75;;
65535;SDS011;52145;49.342;9.116;2023-05-01T01:43:37;3.63;;;2.20;;
65535;SDS011;52145;49.342;9.116;2023-05-01T01:46:04;3.63;;;2.10;;
65535;SDS011;52145;49.342;9.116;2023-05-01T01:48:32;5.28;;;1.98;;
65535;SDS011;52145;49.342;9.116;2023-05-01T01:50:59;4.25;;;2.10;;
65535;SDS011;52145;49.342;9.116;2023-05-01T01:53:27;4.43;;;1.90;;
65535;SDS011;52145;49.342;9.116;2023-05-01T01:55:54;4.28;;;2.00;;
65535;SDS011;52145;49.342;9.116;2023-05-01T01:58:21;3.03;;;1.80;;
65535;SDS011;52145;49.342;9.116;2023-05-01T02:00:51;2.75;;;1.80;;
65535;SDS011;52145;49.342;9.116;2023-05-01T02:03:18;3.78;;;1.77;;
65535;SDS011;52145;49.342;9.116;2023-05-01T02:05:44;3.30;;;2.10;;
65535;SDS011;52145;49.342;9.116;2023-05-01T02:08:11;3.38;;;2.10;;
65535;SDS011;52145;49.342;9.116;2023-05-01T02:10:37;5.57;;;1.95;;
65535;SDS011;52145;49.342;9.116;2023-05-01T02:13:04;3.85;;;1.75;;
65535;SDS011;52145;49.342;9.116;2023-05-01T02:15:31;2.97;;;2.00;;
65535;SDS011;52145;49.342;9.116;2023-05-01T02:17:57;4.63;;;1.90;;
65535;SDS011;52145;49.342;9.116;2023-05-01T02:20:27;3.10;;;1.60;;
65535;SDS011;52145;49.342;9.116;2023-05-01T02:22:54;3.35;;;1.77;;
65535;SDS011;52145;49.342;9.116;2023-05-01T02:25:20;2.55;;;1.88;;
65535;SDS011;52145;49.342;9.116;2023-05-01T02:27:55;3.80;;;1.88;;
65535;SDS011;52145;49.342;9.116;2023-05-01T02:32:48;4.70;;;2.13;;
65535;SDS011;52145;49.342;9.116;2023-05-01T02:35:14;4.40;;;2.70;;
65535;SDS011;52145;49.342;9.116;2023-05-01T02:37:41;6.15;;;2.80;;
65535;SDS011;52145;49.342;9.116;2023-05-01T02:40:07;4.88;;;2.72;;
65535;SDS011;52145;49.342;9.116;2023-05-01T02:42:33;4.22;;;2.97;;
65535;SDS011;52145;49.342;9.116;2023-05-01T02:45:00;3.55;;;2.47;;
65535;SDS011;52145;49.342;9.116;2023-05-01T02:47:27;4.28;;;2.67;;
65535;SDS011;52145;49.342;9.116;2023-05-01T02:49:54;4.13;;;2.50;;
65535;SDS011;52145;49.342;9.116;2023-05-01T02:52:20;4.10;;;2.33;;
65535;SDS011;52145;49.342;9.116;2023-05-01T02:54:47;4.38;;;2.45;;
65535;SDS011;52145;49.342;9.116;2023-05-01T02:57:13;3.63;;;2.40;;
65535;SDS011;52145;49.342;9.116;2023-05-01T02:59:39;5.63;;;2.63;;
65535;SDS011;52145;49.342;9.116;2023-05-01T03:02:05;10.68;;;3.08;;
65535;SDS011;52145;49.342;9.116;2023-05-01T03:04:31;6.13;;;2.55;;
65535;SDS011;52145;49.342;9.116;2023-05-01T03:06:57;4.00;;;2.78;;
65535;SDS011;52145;49.342;9.116;2023-05-01T03:09:23;6.07;;;3.10;;
65535;SDS011;52145;49.342;9.116;2023-05-01T03:11:49;4.40;;;2.72;;
65535;SDS011;52145;49.342;9.116;2023-05-01T03:14:15;3.47;;;2.35;;
65535;SDS011;52145;49.342;9.116;2023-05-01T03:16:41;17.67;;;3.28;;
65535;SDS011;52145;49.342;9.116;2023-05-01T03:19:07;6.57;;;3.15;;
65535;SDS011;52145;49.342;9.116;2023-05-01T03:21:33;5.43;;;2.72;;
65535;SDS011;52145;49.342;9.116;2023-05-01T03:23:59;4.65;;;2.95;;
65535;SDS011;52145;49.342;9.116;2023-05-01T03:26:25;5.28;;;3.60;;
65535;SDS011;52145;49.342;9.116;2023-05-01T03:28:51;7.47;;;2.70;;
65535;SDS011;52145;49.342;9.116;2023-05-01T03:31:17;8.70;;;2.70;;
65535;SDS011;52145;49.342;9.116;2023-05-01T03:33:43;4.18;;;2.92;;
65535;SDS011;52145;49.342;9.116;2023-05-01T03:38:38;8.20;;;2.92;;
65535;SDS011;52145;49.342;9.116;2023-05-01T03:41:04;4.70;;;2.80;;
65535;SDS011;52145;49.342;9.116;2023-05-01T03:43:30;5.45;;;3.03;;
65535;SDS011;52145;49.342;9.116;2023-05-01T03:45:56;9.07;;;2.95;;
65535;SDS011;52145;49.342;9.116;2023-05-01T03:48:23;8.32;;;3.63;;
65535;SDS011;52145;49.342;9.116;2023-05-01T03:50:49;6.35;;;3.85;;
65535;SDS011;52145;49.342;9.116;2023-05-01T03:53:15;6.47;;;3.13;;
65535;SDS011;52145;49.342;9.116;2023-05-01T03:55:42;7.55;;;3.72;;
65535;SDS011;52145;49.342;9.116;2023-05-01T03:58:08;4.75;;;3.33;;
65535;SDS011;52145;49.342;9.116;2023-05-01T04:00:37;6.30;;;3.22;;
65535;SDS011;52145;49.342;9.116;2023-05-01T04:03:03;6.15;;;3.20;;
65535;SDS011;52145;49.342;9.116;2023-05-01T04:05:29;7.10;;;3.20;;
65535;SDS011;52145;49.342;9.116;2023-05-01T04:07:55;7.18;;;3.28;;
65535;SDS011;52145;49.342;9.116;2023-05-01T04:10:22;5.28;;;3.10;;
65535;SDS011;52145;49.342;9.116;2023-05-01T04:12:48;6.25;;;3.38;;
65535;SDS011;52145;49.342;9.116;2023-05-01T04:15:14;6.03;;;3.22;;
65535;SDS011;52145;49.342;9.116;2023-05-01T04:17:40;9.07;;;3.58;;
65535;SDS011;52145;49.342;9.116;2023-05-01T04:20:07;5.22;;;3.20;;
65535;SDS011;52145;49.342;9.116;2023-05-01T04:22:34;7.63;;;3.80;;
65535;SDS011;52145;49.342;9.116;2023-05-01T04:25:00;3.85;;;3.00;;
65535;SDS011;52145;49.342;9.116;2023-05-01T04:27:26;5.75;;;3.30;;
65535;SDS011;52145;49.342;9.116;2023-05-01T04:29:52;6.70;;;3.58;;
65535;SDS011;52145;49.342;9.116;2023-05-01T04:32:18;5.25;;;3.10;;
65535;SDS011;52145;49.342;9.116;2023-05-01T04:34:44;5.35;;;3.45;;
65535;SDS011;52145;49.342;9.116;2023-05-01T04:37:10;7.35;;;3.63;;
65535;SDS011;52145;49.342;9.116;2023-05-01T04:39:36;6.22;;;3.28;;
65535;SDS011;52145;49.342;9.116;2023-05-01T04:42:02;6.47;;;3.42;;
65535;SDS011;52145;49.342;9.116;2023-05-01T04:44:29;8.23;;;3.47;;
65535;SDS011;52145;49.342;9.116;2023-05-01T04:46:55;6.95;;;3.30;;
65535;SDS011;52145;49.342;9.116;2023-05-01T04:49:21;5.68;;;3.33;;
65535;SDS011;52145;49.342;9.116;2023-05-01T04:51:47;7.50;;;3.83;;
65535;SDS011;52145;49.342;9.116;2023-05-01T04:54:13;4.80;;;3.10;;
65535;SDS011;52145;49.342;9.116;2023-05-01T04:56:39;5.25;;;3.15;;
65535;SDS011;52145;49.342;9.116;2023-05-01T04:59:05;6.22;;;3.60;;
65535;SDS011;52145;49.342;9.116;2023-05-01T05:01:31;4.95;;;2.83;;
65535;SDS011;52145;49.342;9.116;2023-05-01T05:03:57;5.65;;;3.13;;
65535;SDS011;52145;49.342;9.116;2023-05-01T05:06:23;6.03;;;3.35;;
65535;SDS011;52145;49.342;9.116;2023-05-01T05:08:48;4.75;;;3.10;;
65535;SDS011;52145;49.342;9.116;2023-05-01T05:11:16;6.07;;;3.08;;
65535;SDS011;52145;49.342;9.116;2023-05-01T05:13:42;6.25;;;3.20;;
65535;SDS011;52145;49.342;9.116;2023-05-01T05:16:08;4.95;;;3.08;;
65535;SDS011;52145;49.342;9.116;2023-05-01T05:18:34;7.00;;;3.05;;
65535;SDS011;52145;49.342;9.116;2023-05-01T05:21:04;6.90;;;3.30;;
65535;SDS011;52145;49.342;9.116;2023-05-01T05:23:30;7.35;;;3.60;;
65535;SDS011;52145;49.342;9.116;2023-05-01T05:25:56;9.38;;;4.10;;
65535;SDS011;52145;49.342;9.116;2023-05-01T05:28:25;5.10;;;3.25;;
65535;SDS011;52145;49.342;9.116;2023-05-01T05:30:52;6.43;;;3.40;;
65535;SDS011;52145;49.342;9.116;2023-05-01T05:33:18;4.32;;;2.75;;
65535;SDS011;52145;49.342;9.116;2023-05-01T05:35:44;7.72;;;3.20;;
65535;SDS011;52145;49.342;9.116;2023-05-01T05:38:10;5.75;;;3.40;;
65535;SDS011;52145;49.342;9.116;2023-05-01T05:40:36;5.65;;;2.90;;
65535;SDS011;52145;49.342;9.116;2023-05-01T05:43:02;5.40;;;2.92;;
65535;SDS011;52145;49.342;9.116;2023-05-01T05:45:28;6.45;;;3.20;;
65535;SDS011;52145;49.342;9.116;2023-05-01T05:47:57;5.38;;;3.00;;
65535;SDS011;52145;49.342;9.116;2023-05-01T05:50:23;5.15;;;2.80;;
65535;SDS011;52145;49.342;9.116;2023-05-01T05:52:49;6.30;;;3.22;;
65535;SDS011;52145;49.342;9.116;2023-05-01T05:55:16;8.63;;;3.53;;
65535;SDS011;52145;49.342;9.116;2023-05-01T05:57:42;7.18;;;3.40;;
65535;SDS011;52145;49.342;9.116;2023-05-01T06:00:08;5.97;;;3.25;;
65535;SDS011;52145;49.342;9.116;2023-05-01T06:02:34;7.60;;;3.47;;
65535;SDS011;52145;49.342;9.116;2023-05-01T06:05:01;7.90;;;3.40;;
65535;SDS011;52145;49.342;9.116;2023-05-01T06:07:27;6.70;;;3.38;;
65535;SDS011;52145;49.342;9.116;2023-05-01T06:09:53;6.75;;;3.25;;
65535;SDS011;52145;49.342;9.116;2023-05-01T06:12:19;7.28;;;3.20;;
65535;SDS011;52145;49.342;9.116;2023-05-01T06:14:45;4.80;;;3.28;;
65535;SDS011;52145;49.342;9.116;2023-05-01T06:17:11;7.47;;;3.42;;
65535;SDS011;52145;49.342;9.116;2023-05-01T06:19:38;5.95;;;3.13;;
65535;SDS011;52145;49.342;9.116;2023-05-01T06:22:04;6.25;;;3.10;;
65535;SDS011;52145;49.342;9.116;2023-05-01T06:24:31;9.23;;;3.53;;
65535;SDS011;52145;49.342;9.116;2023-05-01T06:26:57;5.72;;;3.60;;
65535;SDS011;52145;49.342;9.116;2023-05-01T06:29:23;4.82;;;3.13;;
65535;SDS011;52145;49.342;9.116;2023-05-01T06:31:49;5.38;;;3.28;;
65535;SDS011;52145;49.342;9.116;2023-05-01T06:34:15;6.88;;;3.55;;
65535;SDS011;52145;49.342;9.116;2023-05-01T06:36:41;5.38;;;3.15;;
65535;SDS011;52145;49.342;9.116;2023-05-01T06:39:07;5.95;;;4.18;;
65535;SDS011;52145;49.342;9.116;2023-05-01T06:41:33;5.00;;;3.40;;
65535;SDS011;52145;49.342;9.116;2023-05-01T06:44:00;6.75;;;4.20;;
65535;SDS011;52145;49.342;9.116;2023-05-01T06:46:25;7.20;;;3.28;;
65535;SDS011;52145;49.342;9.116;2023-05-01T06:48:51;5.75;;;3.00;;
65535;SDS011;52145;49.342;9.116;2023-05-01T06:51:17;6.30;;;3.55;;
65535;SDS011;52145;49.342;9.116;2023-05-01T06:53:43;6.78;;;3.90;;
65535;SDS011;52145;49.342;9.116;2023-05-01T06:56:09;5.95;;;3.30;;
65535;SDS011;52145;49.342;9.116;2023-05-01T06:58:35;6.72;;;3.90;;
65535;SDS011;52145;49.342;9.116;2023-05-01T07:01:01;7.43;;;3.78;;
65535;SDS011;52145;49.342;9.116;2023-05-01T07:03:27;7.60;;;3.45;;
65535;SDS011;52145;49.342;9.116;2023-05-01T07:05:53;9.45;;;4.18;;
65535;SDS011;52145;49.342;9.116;2023-05-01T07:08:20;7.72;;;3.50;;
65535;SDS011;52145;49.342;9.116;2023-05-01T07:10:46;6.50;;;3.60;;
65535;SDS011;52145;49.342;9.116;2023-05-01T07:13:14;6.90;;;3.80;;
65535;SDS011;52145;49.342;9.116;2023-05-01T07:15:40;6.32;;;3.78;;
65535;SDS011;52145;49.342;9.116;2023-05-01T07:18:06;9.82;;;3.78;;
65535;SDS011;52145;49.342;9.116;2023-05-01T07:20:32;6.03;;;3.17;;
65535;SDS011;52145;49.342;9.116;2023-05-01T07:22:58;7.05;;;3.90;;
65535;SDS011;52145;49.342;9.116;2023-05-01T07:25:24;6.47;;;3.90;;
65535;SDS011;52145;49.342;9.116;2023-05-01T07:27:50;10.18;;;4.18;;
65535;SDS011;52145;49.342;9.116;2023-05-01T07:30:17;6.72;;;3.65;;
65535;SDS011;52145;49.342;9.116;2023-05-01T07:32:42;6.22;;;3.72;;
65535;SDS011;52145;49.342;9.116;2023-05-01T07:35:09;8.52;;;4.40;;
65535;SDS011;52145;49.342;9.116;2023-05-01T07:37:35;6.50;;;3.65;;
65535;SDS011;52145;49.342;9.116;2023-05-01T07:40:01;6.75;;;3.67;;
65535;SDS011;52145;49.342;9.116;2023-05-01T07:42:27;7.82;;;3.45;;
65535;SDS011;52145;49.342;9.116;2023-05-01T07:44:53;8.10;;;4.15;;
65535;SDS011;52145;49.342;9.116;2023-05-01T07:47:19;6.03;;;3.33;;
65535;SDS011;52145;49.342;9.116;2023-05-01T07:49:45;7.60;;;3.53;;
65535;SDS011;52145;49.342;9.116;2023-05-01T07:52:11;6.40;;;3.70;;
65535;SDS011;52145;49.342;9.116;2023-05-01T07:54:37;7.55;;;3.78;;
65535;SDS011;52145;49.342;9.116;2023-05-01T07:57:05;9.52;;;3.65;;
65535;SDS011;52145;49.342;9.116;2023-05-01T07:59:31;6.32;;;3.97;;
65535;SDS011;52145;49.342;9.116;2023-05-01T08:01:57;7.15;;;3.83;;
65535;SDS011;52145;49.342;9.116;2023-05-01T08:04:22;7.57;;;3.55;;
65535;SDS011;52145;49.342;9.116;2023-05-01T08:06:49;7.93;;;3.40;;
65535;SDS011;52145;49.342;9.116;2023-05-01T08:09:15;9.77;;;3.90;;
65535;SDS011;52145;49.342;9.116;2023-05-01T08:11:41;7.72;;;3.90;;
65535;SDS011;52145;49.342;9.116;2023-05-01T08:14:07;6.78;;;4.03;;
65535;SDS011;52145;49.342;9.116;2023-05-01T08:16:36;6.50;;;3.90;;
65535;SDS011;52145;49.342;9.116;2023-05-01T08:19:02;10.25;;;3.60;;
65535;SDS011;52145;49.342;9.116;2023-05-01T08:21:28;6.25;;;3.58;;
65535;SDS011;52145;49.342;9.116;2023-05-01T08:23:55;6.55;;;3.58;;
65535;SDS011;52145;49.342;9.116;2023-05-01T08:26:21;6.22;;;3.47;;
65535;SDS011;52145;49.342;9.116;2023-05-01T08:28:47;6.35;;;3.63;;
65535;SDS011;52145;49.342;9.116;2023-05-01T08:31:13;5.88;;;3.22;;
65535;SDS011;52145;49.342;9.116;2023-05-01T08:33:39;6.03;;;3.80;;
65535;SDS011;52145;49.342;9.116;2023-05-01T08:36:06;7.50;;;4.30;;
65535;SDS011;52145;49.342;9.116;2023-05-01T08:38:32;7.22;;;3.28;;
65535;SDS011;52145;49.342;9.116;2023-05-01T08:40:58;5.82;;;3.58;;
65535;SDS011;52145;49.342;9.116;2023-05-01T08:43:31;9.95;;;4.30;;
65535;SDS011;52145;49.342;9.116;2023-05-01T08:45:58;4.97;;;3.22;;
65535;SDS011;52145;49.342;9.116;2023-05-01T08:48:25;6.57;;;3.50;;
65535;SDS011;52145;49.342;9.116;2023-05-01T08:50:53;7.05;;;3.58;;
65535;SDS011;52145;49.342;9.116;2023-05-01T08:53:20;7.63;;;3.50;;
65535;SDS011;52145;49.342;9.116;2023-05-01T08:55:46;6.93;;;3.63;;
65535;SDS011;52145;49.342;9.116;2023-05-01T08:58:13;5.20;;;3.25;;
65535;SDS011;52145;49.342;9.116;2023-05-01T09:00:39;9.00;;;3.60;;
65535;SDS011;52145;49.342;9.116;2023-05-01T09:03:06;6.13;;;3.60;;
65535;SDS011;52145;49.342;9.116;2023-05-01T09:05:34;8.43;;;3.28;;
65535;SDS011;52145;49.342;9.116;2023-05-01T09:08:00;9.25;;;3.65;;
65535;SDS011;52145;49.342;9.116;2023-05-01T09:10:27;7.15;;;3.20;;
65535;SDS011;52145;49.342;9.116;2023-05-01T09:12:57;7.68;;;3.65;;
65535;SDS011;52145;49.342;9.116;2023-05-01T09:15:25;6.32;;;3.38;;
65535;SDS011;52145;49.342;9.116;2023-05-01T09:17:52;6.63;;;3.90;;
65535;SDS011;52145;49.342;9.116;2023-05-01T09:20:18;6.18;;;4.03;;
65535;SDS011;52145;49.342;9.116;2023-05-01T09:22:44;6.70;;;4.03;;
65535;SDS011;52145;49.342;9.116;2023-05-01T09:25:10;6.95;;;4.05;;
65535;SDS011;52145;49.342;9.116;2023-05-01T09:27:36;6.20;;;3.92;;
65535;SDS011;52145;49.342;9.116;2023-05-01T09:30:03;6.97;;;4.28;;
65535;SDS011;52145;49.342;9.116;2023-05-01T09:32:30;7.90;;;4.30;;
65535;SDS011;52145;49.342;9.116;2023-05-01T09:35:09;7.20;;;4.30;;
65535;SDS011;52145;49.342;9.116;2023-05-01T09:37:35;6.45;;;3.97;;
65535;SDS011;52145;49.342;9.116;2023-05-01T09:40:08;7.00;;;4.07;;
65535;SDS011;52145;49.342;9.116;2023-05-01T09:42:35;5.88;;;4.18;;
65535;SDS011;52145;49.342;9.116;2023-05-01T09:45:02;7.32;;;3.67;;
65535;SDS011;52145;49.342;9.116;2023-05-01T09:47:28;6.50;;;3.90;;
65535;SDS011;52145;49.342;9.116;2023-05-01T09:49:55;7.32;;;3.90;;
65535;SDS011;52145;49.342;9.116;2023-05-01T09:52:23;6.65;;;3.88;;
65535;SDS011;52145;49.342;9.116;2023-05-01T09:54:50;7.93;;;4.43;;
65535;SDS011;52145;49.342;9.116;2023-05-01T09:57:35;5.47;;;3.60;;
65535;SDS011;52145;49.342;9.116;2023-05-01T10:00:06;7.97;;;4.43;;
65535;SDS011;52145;49.342;9.116;2023-05-01T10:02:34;6.93;;;4.20;;
65535;SDS011;52145;49.342;9.116;2023-05-01T10:05:00;8.85;;;4.30;;
65535;SDS011;52145;49.342;9.116;2023-05-01T10:07:26;6.43;;;3.92;;
65535;SDS011;52145;49.342;9.116;2023-05-01T10:09:52;7.13;;;4.63;;
65535;SDS011;52145;49.342;9.116;2023-05-01T10:12:23;6.55;;;4.38;;
65535;SDS011;52145;49.342;9.116;2023-05-01T10:14:52;7.00;;;3.75;;
65535;SDS011;52145;49.342;9.116;2023-05-01T10:17:18;7.80;;;4.20;;
65535;SDS011;52145;49.342;9.116;2023-05-01T10:19:45;7.53;;;4.57;;
65535;SDS011;52145;49.342;9.116;2023-05-01T10:22:11;9.90;;;4.07;;
65535;SDS011;52145;49.342;9.116;2023-05-01T10:24:37;7.35;;;4.55;;
65535;SDS011;52145;49.342;9.116;2023-05-01T10:27:05;6.88;;;4.03;;
65535;SDS011;52145;49.342;9.116;2023-05-01T10:29:33;9.82;;;4.32;;
65535;SDS011;52145;49.342;9.116;2023-05-01T10:32:01;6.38;;;4.00;;
65535;SDS011;52145;49.342;9.116;2023-05-01T10:34:28;8.68;;;4.72;;
65535;SDS011;52145;49.342;9.116;2023-05-01T10:36:59;7.57;;;4.28;;
65535;SDS011;52145;49.342;9.116;2023-05-01T10:42:02;6.07;;;4.25;;
65535;SDS011;52145;49.342;9.116;2023-05-01T10:44:29;11.45;;;5.65;;
65535;SDS011;52145;49.342;9.116;2023-05-01T10:46:55;7.53;;;4.15;;
65535;SDS011;52145;49.342;9.116;2023-05-01T10:49:21;8.35;;;4.72;;
65535;SDS011;52145;49.342;9.116;2023-05-01T10:54:25;15.73;;;4.68;;
65535;SDS011;52145;49.342;9.116;2023-05-01T10:56:52;7.20;;;4.70;;
65535;SDS011;52145;49.342;9.116;2023-05-01T10:59:18;6.25;;;4.32;;
65535;SDS011;52145;49.342;9.116;2023-05-01T11:01:45;6.55;;;4.32;;
65535;SDS011;52145;49.342;9.116;2023-05-01T11:07:20;11.63;;;4.97;;
65535;SDS011;52145;49.342;9.116;2023-05-01T11:09:52;9.73;;;4.72;;
65535;SDS011;52145;49.342;9.116;2023-05-01T11:15:04;6.55;;;3.75;;
65535;SDS011;52145;49.342;9.116;2023-05-01T11:20:07;6.97;;;4.38;;
65535;SDS011;52145;49.342;9.116;2023-05-01T11:22:33;10.02;;;3.80;;
65535;SDS011;52145;49.342;9.116;2023-05-01T11:25:00;6.88;;;4.25;;
65535;SDS011;52145;49.342;9.116;2023-05-01T11:27:28;5.57;;;3.70;;
65535;SDS011;52145;49.342;9.116;2023-05-01T11:29:55;6.90;;;4.00;;
65535;SDS011;52145;49.342;9.116;2023-05-01T11:32:24;7.57;;;4.85;;
65535;SDS011;52145;49.342;9.116;2023-05-01T11:34:51;7.13;;;4.70;;
65535;SDS011;52145;49.342;9.116;2023-05-01T11:37:18;5.93;;;4.18;;
65535;SDS011;52145;49.342;9.116;2023-05-01T11:39:50;7.03;;;4.22;;
65535;SDS011;52145;49.342;9.116;2023-05-01T11:42:20;5.65;;;3.65;;
65535;SDS011;52145;49.342;9.116;2023-05-01T11:47:31;6.57;;;3.80;;
65535;SDS011;52145;49.342;9.116;2023-05-01T11:49:58;6.07;;;3.95;;
65535;SDS011;52145;49.342;9.116;2023-05-01T11:52:24;6.20;;;4.35;;
65535;SDS011;52145;49.342;9.116;2023-05-01T11:54:49;9.00;;;6.28;;
65535;SDS011;52145;49.342;9.116;2023-05-01T11:57:16;6.97;;;3.88;;
65535;SDS011;52145;49.342;9.116;2023-05-01T11:59:45;5.95;;;3.65;;
65535;SDS011;52145;49.342;9.116;2023-05-01T12:02:18;5.70;;;3.95;;
65535;SDS011;52145;49.342;9.116;2023-05-01T12:04:44;6.65;;;4.55;;
65535;SDS011;52145;49.342;9.116;2023-05-01T12:07:20;11.27;;;7.38;;
65535;SDS011;52145;49.342;9.116;2023-05-01T12:09:46;9.07;;;5.38;;
65535;SDS011;52145;49.342;9.116;2023-05-01T12:12:13;9.93;;;6.45;;
65535;SDS011;52145;49.342;9.116;2023-05-01T12:14:39;6.05;;;3.60;;
65535;SDS011;52145;49.342;9.116;2023-05-01T12:17:05;20.42;;;13.27;;
65535;SDS011;52145;49.342;9.116;2023-05-01T12:19:35;8.05;;;4.65;;
65535;SDS011;52145;49.342;9.116;2023-05-01T12:22:13;11.80;;;7.40;;
65535;SDS011;52145;49.342;9.116;2023-05-01T12:24:49;8.60;;;4.25;;
65535;SDS011;52145;49.342;9.116;2023-05-01T12:27:16;6.75;;;3.95;;
65535;SDS011;52145;49.342;9.116;2023-05-01T12:29:42;6.53;;;4.10;;
65535;SDS011;52145;49.342;9.116;2023-05-01T12:32:12;6.55;;;4.30;;
65535;SDS011;52145;49.342;9.116;2023-05-01T12:34:39;6.70;;;3.97;;
65535;SDS011;52145;49.342;9.116;2023-05-01T12:37:05;5.35;;;3.78;;
65535;SDS011;52145;49.342;9.116;2023-05-01T12:39:38;6.35;;;3.47;;
65535;SDS011;52145;49.342;9.116;2023-05-01T12:42:13;8.85;;;4.47;;
65535;SDS011;52145;49.342;9.116;2023-05-01T12:44:39;6.07;;;3.55;;
65535;SDS011;52145;49.342;9.116;2023-05-01T12:47:05;7.15;;;4.43;;
65535;SDS011;52145;49.342;9.116;2023-05-01T12:49:32;5.93;;;3.78;;
65535;SDS011;52145;49.342;9.116;2023-05-01T12:52:00;6.30;;;3.45;;
65535;SDS011;52145;49.342;9.116;2023-05-01T12:54:28;5.43;;;3.05;;
65535;SDS011;52145;49.342;9.116;2023-05-01T12:57:13;7.75;;;3.75;;
65535;SDS011;52145;49.342;9.116;2023-05-01T12:59:43;4.97;;;3.55;;
65535;SDS011;52145;49.342;9.116;2023-05-01T13:02:11;4.60;;;3.10;;
65535;SDS011;52145;49.342;9.116;2023-05-01T13:04:38;5.13;;;3.22;;
65535;SDS011;52145;49.342;9.116;2023-05-01T13:07:15;3.45;;;2.70;;
65535;SDS011;52145;49.342;9.116;2023-05-01T13:09:54;5.55;;;3.55;;
65535;SDS011;52145;49.342;9.116;2023-05-01T13:12:21;6.22;;;3.55;;
65535;SDS011;52145;49.342;9.116;2023-05-01T13:14:47;4.75;;;3.17;;
65535;SDS011;52145;49.342;9.116;2023-05-01T13:17:20;5.63;;;3.42;;
65535;SDS011;52145;49.342;9.116;2023-05-01T13:19:51;5.90;;;3.33;;
65535;SDS011;52145;49.342;9.116;2023-05-01T13:22:18;6.25;;;3.28;;
65535;SDS011;52145;49.342;9.116;2023-05-01T13:24:52;5.47;;;3.23;;
65535;SDS011;52145;49.342;9.116;2023-05-01T13:27:20;4.70;;;3.13;;
65535;SDS011;52145;49.342;9.116;2023-05-01T13:29:54;6.93;;;3.30;;
65535;SDS011;52145;49.342;9.116;2023-05-01T13:32:21;6.50;;;3.90;;
65535;SDS011;52145;49.342;9.116;2023-05-01T13:34:48;5.22;;;3.80;;
65535;SDS011;52145;49.342;9.116;2023-05-01T13:37:14;6.03;;;3.72;;
65535;SDS011;52145;49.342;9.116;2023-05-01T13:39:43;5.53;;;3.20;;
65535;SDS011;52145;49.342;9.116;2023-05-01T13:42:10;4.80;;;2.97;;
65535;SDS011;52145;49.342;9.116;2023-05-01T13:44:45;6.55;;;3.40;;
65535;SDS011;52145;49.342;9.116;2023-05-01T13:47:14;5.55;;;3.47;;
65535;SDS011;52145;49.342;9.116;2023-05-01T13:49:40;5.78;;;3.40;;
65535;SDS011;52145;49.342;9.116;2023-05-01T13:52:08;9.40;;;3.35;;
65535;SDS011;52145;49.342;9.116;2023-05-01T13:54:37;5.32;;;3.95;;
65535;SDS011;52145;49.342;9.116;2023-05-01T13:57:03;6.47;;;3.70;;
65535;SDS011;52145;49.342;9.116;2023-05-01T13:59:31;5.10;;;3.47;;
65535;SDS011;52145;49.342;9.116;2023-05-01T14:01:58;4.88;;;3.00;;
65535;SDS011;52145;49.342;9.116;2023-05-01T14:04:25;4.85;;;3.13;;
65535;SDS011;52145;49.342;9.116;2023-05-01T14:06:51;6.38;;;3.75;;
65535;SDS011;52145;49.342;9.116;2023-05-01T14:09:17;4.78;;;3.40;;
65535;SDS011;52145;49.342;9.116;2023-05-01T14:11:43;5.78;;;3.42;;
65535;SDS011;52145;49.342;9.116;2023-05-01T14:14:16;6.05;;;3.30;;
65535;SDS011;52145;49.342;9.116;2023-05-01T14:16:45;4.32;;;2.90;;
65535;SDS011;52145;49.342;9.116;2023-05-01T14:19:13;5.50;;;3.17;;
65535;SDS011;52145;49.342;9.116;2023-05-01T14:21:40;4.13;;;2.55;;
65535;SDS011;52145;49.342;9.116;2023-05-01T14:24:09;4.57;;;3.08;;
65535;SDS011;52145;49.342;9.116;2023-05-01T14:26:38;6.03;;;3.40;;
65535;SDS011;52145;49.342;9.116;2023-05-01T14:29:06;4.10;;;2.90;;
65535;SDS011;52145;49.342;9.116;2023-05-01T14:31:37;4.20;;;2.60;;
65535;SDS011;52145;49.342;9.116;2023-05-01T14:34:03;4.72;;;2.78;;
65535;SDS011;52145;49.342;9.116;2023-05-01T14:36:31;4.80;;;2.83;;
65535;SDS011;52145;49.342;9.116;2023-05-01T14:38:58;4.97;;;2.75;;
65535;SDS011;52145;49.342;9.116;2023-05-01T14:41:24;4.65;;;2.80;;
65535;SDS011;52145;49.342;9.116;2023-05-01T14:43:50;5.55;;;3.03;;
65535;SDS011;52145;49.342;9.116;2023-05-01T14:46:25;4.15;;;2.90;;
65535;SDS011;52145;49.342;9.116;2023-05-01T14:48:52;5.57;;;2.85;;
65535;SDS011;52145;49.342;9.116;2023-05-01T14:51:18;3.63;;;2.70;;
65535;SDS011;52145;49.342;9.116;2023-05-01T14:53:44;3.63;;;2.58;;
65535;SDS011;52145;49.342;9.116;2023-05-01T14:56:11;5.93;;;2.78;;
65535;SDS011;52145;49.342;9.116;2023-05-01T14:58:37;4.60;;;2.65;;
65535;SDS011;52145;49.342;9.116;2023-05-01T15:01:03;3.65;;;2.50;;
65535;SDS011;52145;49.342;9.116;2023-05-01T15:03:30;4.97;;;2.80;;
65535;SDS011;52145;49.342;9.116;2023-05-01T15:05:56;5.53;;;3.25;;
65535;SDS011;52145;49.342;9.116;2023-05-01T15:08:22;3.65;;;2.58;;
65535;SDS011;52145;49.342;9.116;2023-05-01T15:10:50;4.72;;;2.90;;
65535;SDS011;52145;49.342;9.116;2023-05-01T15:13:18;4.65;;;2.85;;
65535;SDS011;52145;49.342;9.116;2023-05-01T15:15:45;5.38;;;2.92;;
65535;SDS011;52145;49.342;9.116;2023-05-01T15:18:11;5.97;;;3.20;;
65535;SDS011;52145;49.342;9.116;2023-05-01T15:20:37;4.45;;;3.17;;
65535;SDS011;52145;49.342;9.116;2023-05-01T15:23:03;5.00;;;2.97;;
65535;SDS011;52145;49.342;9.116;2023-05-01T15:25:29;7.20;;;2.92;;
65535;SDS011;52145;49.342;9.116;2023-05-01T15:27:54;5.20;;;2.78;;